createdAt,value
2017-06-15T00:00:21.784Z,12.13
2017-06-15T00:02:49.984Z,9.55
2017-06-15T00:05:18.148Z,9.77
2017-06-15T00:07:46.302Z,10.52
2017-06-15T00:10:14.472Z,10.95
2017-06-15T00:12:42.659Z,9.95
2017-06-15T00:15:10.829Z,11.35
2017-06-15T00:17:39.028Z,10.63
2017-06-15T00:20:07.205Z,10.70
2017-06-15T00:22:35.369Z,9.35
2017-06-15T00:25:03.545Z,10.95
2017-06-15T00:27:31.708Z,9.77
2017-06-15T00:29:59.866Z,9.43
2017-06-15T00:32:28.041Z,9.77
2017-06-15T00:34:56.209Z,9.90
2017-06-15T00:37:24.361Z,10.60
2017-06-15T00:39:53.305Z,9.00
2017-06-15T00:42:21.457Z,9.68
2017-06-15T00:44:49.603Z,10.30
2017-06-15T00:47:18.549Z,10.18
2017-06-15T00:49:46.719Z,10.65
2017-06-15T00:52:14.884Z,10.52
2017-06-15T00:54:43.052Z,9.20
2017-06-15T00:57:11.217Z,8.90
2017-06-15T00:59:39.376Z,9.60
2017-06-15T01:02:08.333Z,10.00
2017-06-15T01:04:36.478Z,11.20
2017-06-15T01:07:04.621Z,9.60
2017-06-15T01:09:33.581Z,10.10
2017-06-15T01:12:01.747Z,11.05
2017-06-15T01:14:29.903Z,10.07
2017-06-15T01:16:58.101Z,9.00
2017-06-15T01:19:26.254Z,10.75
2017-06-15T01:21:54.426Z,11.68
2017-06-15T01:24:25.974Z,10.10
2017-06-15T01:26:54.144Z,11.00
2017-06-15T01:29:22.298Z,11.05
2017-06-15T01:31:50.491Z,11.18
2017-06-15T01:34:18.633Z,10.00
2017-06-15T01:36:47.553Z,11.10
2017-06-15T01:39:15.751Z,9.43
2017-06-15T01:41:43.959Z,9.75
2017-06-15T01:44:12.139Z,10.40
2017-06-15T01:46:40.319Z,10.15
2017-06-15T01:49:09.252Z,9.50
2017-06-15T01:51:37.399Z,10.48
2017-06-15T01:54:05.574Z,10.50
2017-06-15T01:56:34.517Z,10.55
2017-06-15T01:59:02.662Z,10.90
2017-06-15T02:01:30.852Z,12.23
2017-06-15T02:03:59.023Z,11.45
2017-06-15T02:06:27.193Z,10.82
2017-06-15T02:08:55.370Z,14.43
2017-06-15T02:11:23.549Z,13.48
2017-06-15T02:13:51.724Z,11.70
2017-06-15T02:16:19.914Z,11.63
2017-06-15T02:18:48.088Z,11.50
2017-06-15T02:21:16.238Z,10.60
2017-06-15T02:23:44.413Z,11.60
2017-06-15T02:26:12.597Z,12.32
2017-06-15T02:28:40.770Z,13.57
2017-06-15T02:31:09.000Z,11.60
2017-06-15T02:33:37.941Z,12.37
2017-06-15T02:36:06.099Z,15.10
2017-06-15T02:38:34.298Z,12.00
2017-06-15T02:41:02.455Z,14.02
2017-06-15T02:43:30.634Z,13.70
2017-06-15T02:45:59.255Z,12.43
2017-06-15T02:48:27.404Z,13.00
2017-06-15T02:50:55.577Z,13.43
2017-06-15T02:53:23.772Z,14.20
2017-06-15T02:55:51.926Z,13.82
2017-06-15T02:58:20.081Z,12.65
2017-06-15T03:00:48.281Z,14.65
2017-06-15T03:03:16.469Z,12.48
2017-06-15T03:05:44.630Z,12.27
2017-06-15T03:08:12.836Z,12.25
2017-06-15T03:10:40.988Z,11.80
2017-06-15T03:13:09.176Z,12.30
2017-06-15T03:15:37.738Z,13.68
2017-06-15T03:18:05.905Z,11.00
2017-06-15T03:20:34.077Z,13.05
2017-06-15T03:23:02.284Z,13.62
2017-06-15T03:25:30.437Z,12.25
2017-06-15T03:27:58.586Z,11.30
2017-06-15T03:30:26.793Z,11.90
2017-06-15T03:32:54.978Z,11.70
2017-06-15T03:35:23.149Z,10.93
2017-06-15T03:37:51.326Z,10.88
2017-06-15T03:40:19.484Z,9.88
2017-06-15T03:42:47.630Z,11.35
2017-06-15T03:45:15.845Z,12.43
2017-06-15T03:47:44.011Z,9.45
2017-06-15T03:50:12.167Z,10.18
2017-06-15T03:52:40.371Z,9.85
2017-06-15T03:55:08.545Z,9.50
2017-06-15T03:57:36.704Z,9.85
2017-06-15T04:00:04.884Z,9.27
2017-06-15T04:02:33.053Z,9.93
2017-06-15T04:05:01.197Z,9.20
2017-06-15T04:07:29.385Z,11.85
2017-06-15T04:09:57.553Z,9.60
2017-06-15T04:12:25.722Z,9.85
2017-06-15T04:14:53.895Z,8.50
2017-06-15T04:17:22.064Z,9.18
2017-06-15T04:19:50.210Z,8.88
2017-06-15T04:22:19.167Z,8.80
2017-06-15T04:24:47.324Z,8.52
2017-06-15T04:27:15.491Z,8.20
2017-06-15T04:29:43.701Z,9.02
2017-06-15T04:32:11.846Z,7.68
2017-06-15T04:34:40.013Z,8.75
2017-06-15T04:37:08.185Z,7.62
2017-06-15T04:39:36.354Z,7.20
2017-06-15T04:42:04.513Z,8.32
2017-06-15T04:44:32.711Z,8.23
2017-06-15T04:47:00.881Z,8.32
2017-06-15T04:49:29.049Z,8.45
2017-06-15T04:51:57.561Z,7.35
2017-06-15T04:54:25.731Z,11.43
2017-06-15T04:56:53.893Z,7.82
2017-06-15T04:59:22.080Z,7.03
2017-06-15T05:01:50.230Z,7.20
2017-06-15T05:04:18.389Z,6.80
2017-06-15T05:06:47.329Z,6.50
2017-06-15T05:09:15.474Z,8.00
2017-06-15T05:11:43.622Z,7.07
2017-06-15T05:14:12.584Z,6.70
2017-06-15T05:16:40.787Z,6.50
2017-06-15T05:19:09.722Z,6.90
2017-06-15T05:21:37.906Z,6.12
2017-06-15T05:24:06.072Z,5.68
2017-06-15T05:26:34.850Z,5.85
2017-06-15T05:29:03.029Z,6.43
2017-06-15T05:31:31.185Z,6.80
2017-06-15T05:33:59.337Z,6.65
2017-06-15T05:36:27.527Z,5.87
2017-06-15T05:38:56.442Z,5.03
2017-06-15T05:41:25.377Z,5.62
2017-06-15T05:43:53.573Z,4.90
2017-06-15T05:46:21.737Z,5.80
2017-06-15T05:48:49.892Z,5.53
2017-06-15T05:51:18.111Z,5.62
2017-06-15T05:53:46.284Z,5.62
2017-06-15T05:56:15.241Z,11.73
2017-06-15T05:58:43.418Z,6.10
2017-06-15T06:01:11.561Z,6.12
2017-06-15T06:03:39.713Z,8.93
2017-06-15T06:06:07.885Z,5.62
2017-06-15T06:08:36.053Z,5.05
2017-06-15T06:11:04.982Z,6.97
2017-06-15T06:13:33.170Z,6.40
2017-06-15T06:16:01.331Z,5.00
2017-06-15T06:18:29.509Z,4.95
2017-06-15T06:20:57.683Z,4.82
2017-06-15T06:23:25.852Z,4.62
2017-06-15T06:25:54.031Z,4.80
2017-06-15T06:28:22.208Z,8.98
2017-06-15T06:30:50.370Z,5.60
2017-06-15T06:33:18.523Z,6.68
2017-06-15T06:35:46.717Z,7.03
2017-06-15T06:38:14.881Z,7.53
2017-06-15T06:40:43.026Z,6.93
2017-06-15T06:43:11.989Z,8.57
2017-06-15T06:45:40.157Z,8.23
2017-06-15T06:48:08.320Z,6.60
2017-06-15T06:50:36.523Z,5.90
2017-06-15T06:53:05.512Z,5.72
2017-06-15T06:55:33.676Z,5.20
2017-06-15T06:58:01.878Z,4.53
2017-06-15T07:00:30.057Z,4.53
2017-06-15T07:02:58.220Z,4.75
2017-06-15T07:05:26.402Z,4.25
2017-06-15T07:07:54.550Z,5.40
2017-06-15T07:10:22.761Z,5.00
2017-06-15T07:12:51.723Z,5.47
2017-06-15T07:15:19.891Z,6.15
2017-06-15T07:17:48.057Z,5.40
2017-06-15T07:20:16.245Z,5.22
2017-06-15T07:22:44.402Z,5.37
2017-06-15T07:25:12.588Z,5.10
2017-06-15T07:27:40.815Z,6.90
2017-06-15T07:30:09.845Z,6.45
2017-06-15T07:32:37.995Z,5.65
2017-06-15T07:35:06.172Z,5.70
2017-06-15T07:37:34.321Z,5.07
2017-06-15T07:40:03.238Z,5.45
2017-06-15T07:42:31.409Z,5.97
2017-06-15T07:44:59.583Z,4.97
2017-06-15T07:47:27.737Z,4.87
2017-06-15T07:49:56.679Z,4.93
2017-06-15T07:52:24.849Z,5.12
2017-06-15T07:54:53.021Z,5.65
2017-06-15T07:57:21.232Z,4.75
2017-06-15T07:59:49.387Z,5.05
2017-06-15T08:02:17.539Z,4.60
2017-06-15T08:04:45.733Z,4.90
2017-06-15T08:07:13.909Z,4.80
2017-06-15T08:09:42.062Z,4.93
2017-06-15T08:12:10.275Z,6.28
2017-06-15T08:14:38.452Z,4.75
2017-06-15T08:17:06.609Z,4.97
2017-06-15T08:19:34.789Z,4.90
2017-06-15T08:22:02.956Z,5.37
2017-06-15T08:24:31.137Z,5.37
2017-06-15T08:26:59.343Z,4.50
2017-06-15T08:29:28.398Z,5.53
2017-06-15T08:31:56.583Z,4.87
2017-06-15T08:34:24.768Z,4.63
2017-06-15T08:36:52.944Z,5.80
2017-06-15T08:39:21.105Z,4.93
2017-06-15T08:41:49.301Z,4.80
2017-06-15T08:44:17.473Z,4.37
2017-06-15T08:46:45.642Z,5.10
2017-06-15T08:49:13.845Z,5.60
2017-06-15T08:51:42.002Z,4.23
2017-06-15T08:54:10.176Z,4.20
2017-06-15T08:56:38.382Z,4.17
2017-06-15T08:59:06.533Z,3.50
2017-06-15T09:01:35.473Z,3.30
2017-06-15T09:04:03.654Z,3.80
2017-06-15T09:06:31.821Z,3.60
2017-06-15T09:08:59.992Z,3.77
2017-06-15T09:11:28.178Z,3.30
2017-06-15T09:13:56.349Z,3.20
2017-06-15T09:16:24.493Z,4.20
2017-06-15T09:18:52.686Z,3.43
2017-06-15T09:21:20.834Z,3.63
2017-06-15T09:23:49.004Z,4.10
2017-06-15T09:26:17.204Z,3.90
2017-06-15T09:28:45.364Z,4.60
2017-06-15T09:31:13.581Z,4.57
2017-06-15T09:33:41.777Z,4.70
2017-06-15T09:36:09.934Z,4.07
2017-06-15T09:38:38.084Z,4.03
2017-06-15T09:41:06.280Z,4.00
2017-06-15T09:43:34.456Z,4.00
2017-06-15T09:46:02.621Z,4.23
2017-06-15T09:48:30.799Z,4.50
2017-06-15T09:50:58.970Z,3.70
2017-06-15T09:53:27.140Z,4.53
2017-06-15T09:55:55.344Z,4.33
2017-06-15T09:58:24.439Z,4.60
2017-06-15T10:00:52.594Z,3.93
2017-06-15T10:03:20.793Z,4.07
2017-06-15T10:05:48.960Z,3.97
2017-06-15T10:08:17.112Z,3.70
2017-06-15T10:10:45.305Z,4.00
2017-06-15T10:13:13.489Z,4.10
2017-06-15T10:15:41.657Z,4.60
2017-06-15T10:18:09.848Z,5.80
2017-06-15T10:20:38.002Z,3.83
2017-06-15T10:23:06.173Z,4.30
2017-06-15T10:25:34.350Z,4.13
2017-06-15T10:28:02.514Z,4.17
2017-06-15T10:30:30.663Z,4.17
2017-06-15T10:32:58.968Z,6.15
2017-06-15T10:35:27.118Z,4.37
2017-06-15T10:37:55.284Z,3.80
2017-06-15T10:40:23.597Z,4.00
2017-06-15T10:42:51.746Z,4.20
2017-06-15T10:45:19.894Z,4.47
2017-06-15T10:47:48.843Z,5.03
2017-06-15T10:50:17.013Z,4.67
2017-06-15T10:52:45.202Z,3.90
2017-06-15T10:55:13.391Z,4.03
2017-06-15T10:57:41.545Z,4.87
2017-06-15T11:00:09.720Z,4.60
2017-06-15T11:02:37.896Z,4.00
2017-06-15T11:05:06.067Z,3.83
2017-06-15T11:07:34.245Z,3.90
2017-06-15T11:10:02.442Z,4.43
2017-06-15T11:12:30.608Z,4.27
2017-06-15T11:14:58.761Z,3.83
2017-06-15T11:17:26.958Z,5.33
2017-06-15T11:19:55.120Z,7.00
2017-06-15T11:22:23.273Z,4.30
2017-06-15T11:24:51.463Z,4.33
2017-06-15T11:27:19.613Z,4.20
2017-06-15T11:29:47.785Z,4.90
2017-06-15T11:32:16.508Z,3.90
2017-06-15T11:34:44.693Z,4.40
2017-06-15T11:37:12.869Z,6.27
2017-06-15T11:39:41.050Z,4.80
2017-06-15T11:42:09.221Z,6.10
2017-06-15T11:44:37.374Z,4.70
2017-06-15T11:47:05.557Z,4.63
2017-06-15T11:49:33.718Z,6.53
2017-06-15T11:52:01.862Z,5.00
2017-06-15T11:54:30.061Z,5.20
2017-06-15T11:56:58.295Z,4.80
2017-06-15T11:59:26.471Z,6.03
2017-06-15T12:01:54.680Z,5.10
2017-06-15T12:04:22.837Z,4.50
2017-06-15T12:06:50.994Z,5.20
2017-06-15T12:09:19.211Z,4.60
2017-06-15T12:11:47.391Z,4.47
2017-06-15T12:14:15.547Z,5.15
2017-06-15T12:16:43.760Z,5.27
2017-06-15T12:19:11.936Z,4.50
2017-06-15T12:21:40.088Z,4.12
2017-06-15T12:24:08.269Z,4.93
2017-06-15T12:26:36.434Z,4.70
2017-06-15T12:29:04.590Z,4.67
2017-06-15T12:31:32.797Z,5.28
2017-06-15T12:34:00.966Z,4.90
2017-06-15T12:36:29.151Z,4.95
2017-06-15T12:38:57.362Z,6.82
2017-06-15T12:41:26.316Z,5.22
2017-06-15T12:43:54.495Z,5.30
2017-06-15T12:46:22.709Z,5.10
2017-06-15T12:48:50.865Z,5.40
2017-06-15T12:51:19.793Z,4.10
2017-06-15T12:53:47.975Z,5.55
2017-06-15T12:56:16.146Z,4.95
2017-06-15T12:58:44.312Z,5.40
2017-06-15T13:01:12.512Z,5.50
2017-06-15T13:03:40.669Z,5.17
2017-06-15T13:06:08.861Z,5.10
2017-06-15T13:08:37.054Z,6.30
2017-06-15T13:11:05.230Z,4.97
2017-06-15T13:13:33.419Z,5.30
2017-06-15T13:16:01.634Z,5.30
2017-06-15T13:18:29.785Z,4.95
2017-06-15T13:20:57.968Z,5.10
2017-06-15T13:23:26.145Z,6.20
2017-06-15T13:25:54.322Z,5.25
2017-06-15T13:28:22.476Z,4.95
2017-06-15T13:30:50.681Z,4.65
2017-06-15T13:33:18.841Z,6.05
2017-06-15T13:35:47.017Z,5.22
2017-06-15T13:38:15.201Z,5.75
2017-06-15T13:40:43.350Z,5.93
2017-06-15T13:43:11.520Z,5.37
2017-06-15T13:45:41.470Z,4.70
2017-06-15T13:48:09.625Z,5.85
2017-06-15T13:50:37.777Z,5.78
2017-06-15T13:53:06.726Z,4.90
2017-06-15T13:55:34.904Z,5.43
2017-06-15T13:58:03.060Z,5.97
2017-06-15T14:00:31.242Z,5.10
2017-06-15T14:02:59.395Z,5.00
2017-06-15T14:05:27.550Z,4.82
2017-06-15T14:07:55.747Z,4.65
2017-06-15T14:10:23.902Z,4.87
2017-06-15T14:12:52.053Z,4.90
2017-06-15T14:15:20.273Z,4.50
2017-06-15T14:17:48.425Z,5.57
2017-06-15T14:20:17.354Z,4.18
2017-06-15T14:22:45.566Z,4.87
2017-06-15T14:25:13.744Z,4.32
2017-06-15T14:27:41.912Z,4.80
2017-06-15T14:30:10.099Z,4.28
2017-06-15T14:32:38.255Z,5.10
2017-06-15T14:35:06.428Z,5.93
2017-06-15T14:37:34.629Z,4.87
2017-06-15T14:40:03.588Z,4.50
2017-06-15T14:42:31.737Z,4.20
2017-06-15T14:44:59.946Z,4.10
2017-06-15T14:47:28.105Z,4.20
2017-06-15T14:49:56.277Z,5.00
2017-06-15T14:52:24.474Z,4.72
2017-06-15T14:54:52.627Z,4.40
2017-06-15T14:57:20.809Z,6.12
2017-06-15T14:59:49.003Z,4.70
2017-06-15T15:02:17.177Z,4.62
2017-06-15T15:04:45.334Z,4.20
2017-06-15T15:07:13.522Z,4.50
2017-06-15T15:09:41.679Z,5.80
2017-06-15T15:12:09.838Z,7.55
2017-06-15T15:14:38.049Z,4.60
2017-06-15T15:17:06.223Z,4.53
2017-06-15T15:19:34.403Z,4.85
2017-06-15T15:22:02.594Z,5.05
2017-06-15T15:24:30.764Z,4.57
2017-06-15T15:26:58.913Z,7.05
2017-06-15T15:29:27.116Z,4.90
2017-06-15T15:31:55.274Z,4.97
2017-06-15T15:34:23.429Z,5.80
2017-06-15T15:36:51.633Z,4.90
2017-06-15T15:39:19.817Z,4.95
2017-06-15T15:41:47.972Z,4.37
2017-06-15T15:44:16.164Z,4.80
2017-06-15T15:46:44.341Z,5.22
2017-06-15T15:49:13.269Z,5.25
2017-06-15T15:51:41.510Z,4.90
2017-06-15T15:54:09.680Z,6.47
2017-06-15T15:56:37.831Z,5.12
2017-06-15T15:59:06.039Z,5.10
2017-06-15T16:01:34.960Z,5.25
2017-06-15T16:04:03.110Z,8.27
2017-06-15T16:06:32.089Z,4.75
2017-06-15T16:09:00.241Z,5.20
2017-06-15T16:11:28.391Z,5.15
2017-06-15T16:13:56.600Z,4.87
2017-06-15T16:16:24.776Z,5.95
2017-06-15T16:18:52.929Z,4.90
2017-06-15T16:21:21.129Z,5.55
2017-06-15T16:23:49.285Z,5.80
2017-06-15T16:26:17.461Z,5.85
2017-06-15T16:28:45.636Z,6.35
2017-06-15T16:31:13.786Z,5.28
2017-06-15T16:33:41.942Z,4.85
2017-06-15T16:36:10.236Z,5.72
2017-06-15T16:38:38.390Z,5.57
2017-06-15T16:41:06.561Z,5.80
2017-06-15T16:43:35.582Z,9.43
2017-06-15T16:46:03.763Z,5.82
2017-06-15T16:48:31.948Z,6.30
2017-06-15T16:51:00.168Z,5.62
2017-06-15T16:53:29.196Z,5.90
2017-06-15T16:55:57.382Z,5.72
2017-06-15T16:58:25.599Z,6.37
2017-06-15T17:00:53.827Z,5.45
2017-06-15T17:03:22.008Z,5.12
2017-06-15T17:05:50.193Z,5.72
2017-06-15T17:08:18.368Z,5.30
2017-06-15T17:10:46.542Z,8.60
2017-06-15T17:13:14.726Z,6.15
2017-06-15T17:15:42.910Z,5.80
2017-06-15T17:18:11.074Z,6.15
2017-06-15T17:20:39.284Z,8.43
2017-06-15T17:23:08.241Z,8.98
2017-06-15T17:25:36.421Z,8.65
2017-06-15T17:28:04.616Z,7.60
2017-06-15T17:30:32.793Z,7.80
2017-06-15T17:33:00.980Z,7.47
2017-06-15T17:35:29.958Z,7.65
2017-06-15T17:37:59.063Z,8.57
2017-06-15T17:40:27.222Z,8.43
2017-06-15T17:42:56.504Z,8.50
2017-06-15T17:45:24.670Z,8.65
2017-06-15T17:47:52.827Z,9.75
2017-06-15T17:50:21.085Z,10.40
2017-06-15T17:52:49.997Z,9.45
2017-06-15T17:55:18.166Z,8.93
2017-06-15T17:57:46.362Z,10.23
2017-06-15T18:00:14.516Z,12.20
2017-06-15T18:02:42.688Z,17.67
2017-06-15T18:05:10.861Z,13.10
2017-06-15T18:07:39.016Z,11.45
2017-06-15T18:10:08.008Z,11.35
2017-06-15T18:12:36.986Z,11.68
2017-06-15T18:15:05.162Z,10.98
2017-06-15T18:17:33.327Z,11.63
2017-06-15T18:20:01.517Z,12.05
2017-06-15T18:22:30.468Z,11.50
2017-06-15T18:24:58.627Z,12.23
2017-06-15T18:27:26.825Z,11.50
2017-06-15T18:29:54.983Z,11.93
2017-06-15T18:32:23.142Z,11.50
2017-06-15T18:34:51.322Z,13.48
2017-06-15T18:37:19.506Z,13.15
2017-06-15T18:39:47.677Z,12.75
2017-06-15T18:42:15.867Z,11.52
2017-06-15T18:44:44.016Z,13.25
2017-06-15T18:47:12.169Z,14.23
2017-06-15T18:49:41.165Z,13.82
2017-06-15T18:52:09.341Z,14.48
2017-06-15T18:54:37.517Z,12.88
2017-06-15T18:57:05.736Z,12.65
2017-06-15T18:59:33.910Z,12.02
2017-06-15T19:02:02.096Z,12.05
2017-06-15T19:04:30.282Z,14.65
2017-06-15T19:06:58.452Z,13.98
2017-06-15T19:09:26.625Z,13.98
2017-06-15T19:11:54.835Z,15.40
2017-06-15T19:14:23.808Z,16.02
2017-06-15T19:16:51.969Z,15.45
2017-06-15T19:19:23.619Z,15.73
2017-06-15T19:21:52.138Z,14.75
2017-06-15T19:24:20.309Z,15.85
2017-06-15T19:26:49.280Z,16.50
2017-06-15T19:29:17.439Z,16.20
2017-06-15T19:31:45.602Z,15.13
2017-06-15T19:34:13.804Z,15.25
2017-06-15T19:36:41.982Z,15.73
2017-06-15T19:39:10.138Z,16.40
2017-06-15T19:41:38.322Z,14.85
2017-06-15T19:44:06.473Z,14.85
2017-06-15T19:46:35.413Z,15.13
2017-06-15T19:49:03.622Z,16.73
2017-06-15T19:51:31.791Z,16.98
2017-06-15T19:53:59.949Z,15.80
2017-06-15T19:56:28.157Z,20.60
2017-06-15T19:58:57.069Z,24.15
2017-06-15T20:01:25.225Z,21.58
2017-06-15T20:03:54.193Z,20.12
2017-06-15T20:06:22.355Z,19.60
2017-06-15T20:08:50.536Z,17.55
2017-06-15T20:11:18.723Z,17.67
2017-06-15T20:13:46.897Z,18.25
2017-06-15T20:16:15.072Z,16.80
2017-06-15T20:18:43.281Z,18.90
2017-06-15T20:21:11.443Z,18.25
2017-06-15T20:23:40.526Z,18.77
2017-06-15T20:26:15.421Z,17.83
2017-06-15T20:28:43.575Z,18.10
2017-06-15T20:31:11.758Z,20.05
2017-06-15T20:33:39.964Z,19.45
2017-06-15T20:36:08.143Z,19.58
2017-06-15T20:38:37.104Z,22.67
2017-06-15T20:41:05.320Z,19.77
2017-06-15T20:43:33.489Z,17.42
2017-06-15T20:46:01.664Z,18.80
2017-06-15T20:48:29.859Z,19.20
2017-06-15T20:50:58.802Z,20.48
2017-06-15T20:53:26.980Z,20.80
2017-06-15T20:55:55.188Z,23.90
2017-06-15T20:58:23.361Z,29.48
2017-06-15T21:00:51.513Z,29.63
2017-06-15T21:03:19.723Z,27.15
2017-06-15T21:05:48.650Z,23.33
2017-06-15T21:08:16.801Z,28.65
2017-06-15T21:10:45.047Z,24.60
2017-06-15T21:13:13.290Z,28.08
2017-06-15T21:15:41.453Z,26.50
2017-06-15T21:18:09.729Z,31.80
2017-06-15T21:20:38.806Z,27.10
2017-06-15T21:23:07.125Z,28.60
2017-06-15T21:25:35.336Z,28.83
2017-06-15T21:28:03.604Z,27.20
2017-06-15T21:30:31.798Z,27.70
2017-06-15T21:33:00.809Z,28.48
2017-06-15T21:35:29.022Z,26.77
2017-06-15T21:37:57.221Z,28.12
2017-06-15T21:40:25.422Z,31.95
2017-06-15T21:42:54.416Z,29.70
2017-06-15T21:45:22.609Z,27.80
2017-06-15T21:47:50.949Z,26.17
2017-06-15T21:50:19.970Z,25.02
2017-06-15T21:52:48.132Z,27.67
2017-06-15T21:55:16.369Z,24.65
2017-06-15T21:57:44.529Z,23.83
2017-06-15T22:00:12.697Z,24.60
2017-06-15T22:02:40.896Z,28.38
2017-06-15T22:05:09.072Z,21.90
2017-06-15T22:07:37.248Z,23.12
2017-06-15T22:10:05.423Z,20.23
2017-06-15T22:12:33.601Z,19.95
2017-06-15T22:15:01.777Z,19.20
2017-06-15T22:17:29.977Z,17.60
2017-06-15T22:19:58.138Z,17.92
2017-06-15T22:22:26.297Z,18.73
2017-06-15T22:24:54.489Z,17.85
2017-06-15T22:27:22.641Z,20.08
2017-06-15T22:29:50.794Z,18.23
2017-06-15T22:32:18.985Z,14.75
2017-06-15T22:34:47.160Z,14.27
2017-06-15T22:37:15.354Z,20.45
2017-06-15T22:39:43.553Z,14.90
2017-06-15T22:42:12.474Z,16.00
2017-06-15T22:44:40.627Z,21.33
2017-06-15T22:47:09.616Z,12.00
2017-06-15T22:49:38.548Z,13.35
2017-06-15T22:52:06.706Z,14.57
2017-06-15T22:54:34.928Z,11.73
2017-06-15T22:57:03.099Z,11.18
2017-06-15T22:59:31.260Z,16.45
2017-06-15T23:01:59.457Z,13.00
2017-06-15T23:04:27.628Z,15.18
2017-06-15T23:06:55.795Z,13.02
2017-06-15T23:09:23.988Z,11.93
2017-06-15T23:11:52.160Z,18.65
2017-06-15T23:14:20.308Z,10.10
2017-06-15T23:16:48.502Z,9.63
2017-06-15T23:19:16.661Z,14.85
2017-06-15T23:21:44.833Z,15.32
2017-06-15T23:24:13.782Z,11.63
2017-06-15T23:26:41.945Z,9.95
2017-06-15T23:29:10.117Z,9.80
2017-06-15T23:31:38.313Z,8.30
2017-06-15T23:34:06.476Z,7.65
2017-06-15T23:36:34.651Z,10.00
2017-06-15T23:39:02.823Z,8.50
2017-06-15T23:41:30.973Z,7.47
2017-06-15T23:43:59.123Z,8.65
2017-06-15T23:46:28.062Z,13.25
2017-06-15T23:48:56.210Z,11.15
2017-06-15T23:51:24.385Z,11.07
2017-06-15T23:53:52.554Z,8.60
2017-06-15T23:56:20.706Z,9.00
2017-06-15T23:58:49.640Z,7.70
